Data for 07/25/2005

Time Sea-Level Adjusted Pressure Absolute Pressure Temperature Relative Humidity Dew Point   
(mb) (inHg) (mb) (inHg) (C) (F) (%) (C) (F)
00:05 1019 30.09 848 25.04 20.1 68.2 39 6 42.8
00:10 1019 30.09 848 25.04 20 67.9 39 5.8 42.4
00:15 1019 30.09 848 25.04 19.9 67.8 38 5.4 41.8
00:20 1019 30.09 848 25.04 19.9 67.9 38 5.3 41.5
00:25 1019 30.09 848 25.04 19.9 67.8 37 5.1 41.1
00:30 1019 30.09 848 25.04 19.8 67.6 40 6 42.8
00:35 1019 30.09 848 25.04 19.7 67.5 39 5.4 41.7
00:40 1019 30.09 849 25.07 19.6 67.2 39 5.4 41.7
00:45 1019 30.09 849 25.07 19.4 67 39 5.4 41.8
00:50 1019 30.09 849 25.07 19.4 66.8 40 5.6 42
00:55 1019 30.09 848 25.04 19.2 66.6 41 5.9 42.5
01:00 1019 30.09 848 25.04 18.8 65.9 47 7.4 45.3
01:05 1019 30.09 848 25.04 18.6 65.4 45 6.5 43.7
01:10 1019 30.09 849 25.07 18.1 64.7 47 6.6 44
01:15 1019 30.09 849 25.07 17.8 64 49 6.9 44.4
01:20 1020 30.12 849 25.07 17.1 62.8 52 7.4 45.3
01:25 1020 30.12 849 25.07 17 62.5 52 7.1 44.7
01:30 1020 30.12 849 25.07 16.8 62.3 52 6.9 44.5
01:35 1020 30.12 849 25.07 16.8 62.3 52 7 44.6
01:40 1020 30.12 849 25.07 16.7 62 52 6.8 44.3
01:45 1020 30.12 849 25.07 16.7 62.1 52 6.8 44.3
01:50 1020 30.12 849 25.07 16.7 62.1 51 6.7 44
01:55 1020 30.12 849 25.07 16.8 62.2 50 6.5 43.7
02:00 1020 30.12 849 25.07 16.8 62.2 50 6.5 43.6
02:05 1020 30.12 849 25.07 16.7 62.1 51 6.6 43.8
02:10 1020 30.12 849 25.07 16.7 62.1 50 6.4 43.6
02:15 1020 30.12 849 25.07 16.9 62.4 50 6.6 43.9
02:20 1020 30.12 849 25.07 16.7 62.1 52 6.9 44.4
02:25 1020 30.12 849 25.07 16.6 61.8 54 7.3 45.1
02:30 1020 30.12 849 25.07 16.6 61.9 52 6.9 44.4
02:35 1019 30.09 849 25.07 16.5 61.7 53 7 44.6
02:40 1020 30.12 849 25.07 16.4 61.6 52 6.6 43.9
02:45 1019 30.09 849 25.07 16.5 61.8 50 6.3 43.3
02:50 1019 30.09 849 25.07 16.6 61.8 51 6.4 43.6
02:55 1019 30.09 849 25.07 16.3 61.4 51 6.3 43.4
03:00 1020 30.12 849 25.07 16.5 61.8 50 6.1 43
03:05 1020 30.12 849 25.07 16.6 61.8 51 6.6 43.8
03:10 1020 30.12 849 25.07 16.5 61.6 53 6.9 44.4
03:15 1020 30.12 849 25.07 16.3 61.4 53 6.7 44
03:20 1020 30.12 849 25.07 16.3 61.4 52 6.5 43.7
03:25 1020 30.12 850 25.1 16.4 61.5 52 6.6 43.9
03:30 1020 30.12 850 25.1 16.3 61.4 55 7.2 45
03:35 1021 30.15 850 25.1 15.9 60.7 57 7.5 45.5
03:40 1021 30.15 850 25.1 15.4 59.8 61 8.1 46.5
03:45 1021 30.15 850 25.1 14.7 58.4 69 9.1 48.4
03:50 1021 30.15 850 25.1 14.1 57.4 71 9.1 48.3
03:55 1021 30.15 850 25.1 14.1 57.3 71 8.9 48
04:00 1021 30.15 851 25.13 14 57.2 71 8.9 48
04:05 1021 30.15 851 25.13 14.1 57.3 71 8.9 48
04:10 1022 30.18 851 25.13 14.2 57.5 71 8.9 48.1
04:15 1022 30.18 851 25.13 14.1 57.4 72 9.3 48.7
04:20 1022 30.18 852 25.16 13.5 56.3 75 9.3 48.7
04:25 1023 30.21 852 25.16 13.3 55.9 75 9 48.1
04:30 1023 30.21 852 25.16 13.4 56 82 10.4 50.8
04:35 1022 30.18 851 25.13 12.8 55.1 85 10.4 50.6
04:40 1021 30.15 850 25.1 12.1 53.7 91 10.7 51.2
04:45 1019 30.09 849 25.07 11.6 52.9 93 10.5 50.9
04:50 1019 30.09 849 25.07 11.6 52.8 92 10.3 50.5
04:55 1019 30.09 849 25.07 11.6 52.8 92 10.3 50.6
05:00 1019 30.09 848 25.04 11.5 52.6 92 10.1 50.2
05:05 1019 30.09 848 25.04 11.6 52.9 89 9.9 49.8
05:10 1019 30.09 849 25.07 11.9 53.4 86 9.7 49.4
05:15 1020 30.12 849 25.07 12.1 53.9 84 9.5 49.1
05:20 1020 30.12 849 25.07 12.3 54.1 83 9.6 49.2
05:25 1020 30.12 849 25.07 12.3 54.2 85 9.9 49.8
05:30 1020 30.12 849 25.07 12 53.6 85 9.6 49.3
05:35 1020 30.12 849 25.07 12 53.7 84 9.5 49.1
05:40 1020 30.12 849 25.07 12.2 53.9 81 9.1 48.4
05:45 1020 30.12 849 25.07 12.2 54 79 8.7 47.6
05:50 1020 30.12 850 25.1 12.3 54.1 80 9 48.2
05:55 1021 30.15 850 25.1 12.1 53.8 83 9.3 48.8
06:00 1021 30.15 850 25.1 12 53.7 83 9.3 48.8
06:05 1021 30.15 850 25.1 12.2 53.9 85 9.7 49.4
06:10 1021 30.15 850 25.1 12.2 54 85 9.8 49.6
06:15 1021 30.15 851 25.13 12.1 53.7 85 9.7 49.4
06:20 1022 30.18 851 25.13 11.9 53.3 84 9.3 48.8
06:25 1022 30.18 851 25.13 11.8 53.2 85 9.4 49
06:30 1022 30.18 851 25.13 11.6 52.8 90 9.9 49.9
06:35 1022 30.18 851 25.13 11.6 52.8 89 9.8 49.7
06:40 1022 30.18 851 25.13 11.9 53.5 86 9.6 49.3
06:45 1022 30.18 851 25.13 12.3 54.1 84 9.7 49.5
06:50 1022 30.18 851 25.13 12.1 53.8 85 9.7 49.5
06:55 1022 30.18 851 25.13 11.9 53.5 85 9.5 49
07:00 1022 30.18 851 25.13 12.2 54 83 9.5 49.1
07:05 1022 30.18 851 25.13 11.4 52.6 88 9.5 49.2
07:10 1022 30.18 851 25.13 10.7 51.2 91 9.2 48.5
07:15 1022 30.18 851 25.13 10.7 51.2 89 9 48.2
07:20 1022 30.18 851 25.13 10.9 51.5 90 9.3 48.7
07:25 1022 30.18 851 25.13 11.1 52 88 9.1 48.5
07:30 1022 30.18 851 25.13 11.6 53 85 9.2 48.5
07:35 1022 30.18 851 25.13 11.8 53.2 84 9.2 48.6
07:40 1022 30.18 851 25.13 12 53.6 85 9.5 49.1
07:45 1022 30.18 851 25.13 12.2 54 84 9.6 49.4
07:50 1022 30.18 851 25.13 12.4 54.4 81 9.3 48.8
07:55 1022 30.18 851 25.13 12.6 54.6 81 9.5 49.1
08:00 1022 30.18 851 25.13 12.8 55.1 80 9.5 49.2
08:05 1022 30.18 851 25.13 12.9 55.1 80 9.5 49.2
08:10 1022 30.18 851 25.13 13.3 55.9 78 9.6 49.3
08:15 1022 30.18 851 25.13 13.6 56.5 77 9.7 49.5
08:20 1022 30.18 851 25.13 13.9 57 74 9.4 48.9
08:25 1022 30.18 851 25.13 13.8 56.9 74 9.4 48.9
08:30 1022 30.18 851 25.13 14.3 57.7 74 9.7 49.5
08:35 1022 30.18 851 25.13 14.3 57.8 76 10.2 50.4
08:40 1022 30.18 851 25.13 14.1 57.3 78 10.3 50.6
08:45 1022 30.18 851 25.13 13.9 56.9 78 10.1 50.3
08:50 1022 30.18 851 25.13 14.3 57.7 74 9.8 49.7
08:55 1022 30.18 851 25.13 14.8 58.6 71 9.6 49.3
09:00 1022 30.18 851 25.13 15.4 59.6 70 9.9 49.8
09:05 1022 30.18 851 25.13 15.3 59.6 70 9.9 49.9
09:10 1022 30.18 851 25.13 15.5 59.9 69 9.9 49.9
09:15 1022 30.18 851 25.13 15.5 60 70 10.2 50.4
09:20 1022 30.18 851 25.13 15.2 59.4 72 10.2 50.3
09:25 1022 30.18 851 25.13 15.3 59.6 70 10 49.9
09:30 1022 30.18 851 25.13 16.1 60.9 68 10.2 50.4
09:35 1022 30.18 851 25.13 15.7 60.2 71 10.5 50.9
09:40 1022 30.18 851 25.13 15.3 59.6 71 10.2 50.3
09:45 1022 30.18 851 25.13 15.3 59.6 71 10.1 50.2
09:50 1022 30.18 851 25.13 15.3 59.6 74 10.7 51.2
09:55 1022 30.18 851 25.13 14.4 58 78 10.6 51.1
10:00 1022 30.18 851 25.13 14 57.1 78 10.2 50.3
10:05 1022 30.18 851 25.13 13.7 56.6 81 10.5 50.9
10:10 1022 30.18 851 25.13 13.4 56.1 81 10.2 50.3
10:15 1022 30.18 851 25.13 14.6 58.3 74 10 50
10:20 1022 30.18 851 25.13 15.2 59.3 72 10.3 50.5
10:25 1022 30.18 851 25.13 15.4 59.6 71 10.2 50.4
10:30 1022 30.18 851 25.13 15.8 60.4 71 10.6 51.1
10:35 1022 30.18 851 25.13 15.8 60.4 70 10.3 50.6
10:40 1022 30.18 851 25.13 15.8 60.4 71 10.6 51.1
10:45 1022 30.18 851 25.13 15.7 60.3 68 9.9 49.8
10:50 1022 30.18 851 25.13 15.9 60.5 69 10.3 50.6
10:55 1022 30.18 851 25.13 15.8 60.4 71 10.6 51.2
11:00 1022 30.18 851 25.13 15.1 59.1 75 10.8 51.4
11:05 1022 30.18 851 25.13 14.6 58.2 76 10.5 50.9
11:10 1022 30.18 851 25.13 14.9 58.8 74 10.3 50.6
11:15 1022 30.18 851 25.13 15.4 59.7 72 10.3 50.6
11:20 1022 30.18 851 25.13 15.6 60.1 73 10.9 51.5
11:25 1022 30.18 851 25.13 14.8 58.6 75 10.5 51
11:30 1022 30.18 851 25.13 14.8 58.6 75 10.4 50.7
11:35 1022 30.18 851 25.13 14.8 58.6 74 10.2 50.3
11:40 1022 30.18 851 25.13 14.8 58.6 73 10.1 50.2
11:45 1022 30.18 851 25.13 14.8 58.6 74 10.2 50.3
11:50 1022 30.18 852 25.16 15.4 59.7 70 10 49.9
11:55 1022 30.18 851 25.13 15.8 60.4 68 10 49.9
12:00 1022 30.18 851 25.13 16.2 61.2 68 10.3 50.5
12:05 1022 30.18 852 25.16 16.2 61.1 67 10.2 50.4
12:10 1022 30.18 852 25.16 16.2 61.1 70 10.7 51.3
12:15 1022 30.18 852 25.16 15.4 59.7 73 10.6 51
12:20 1022 30.18 852 25.16 15.4 59.6 71 10.3 50.5
12:25 1022 30.18 852 25.16 15.1 59.2 72 10.1 50.3
12:30 1022 30.18 852 25.16 14.9 58.9 73 10.3 50.5
12:35 1022 30.18 851 25.13 15 59 72 10.1 50.1
12:40 1022 30.18 851 25.13 15.5 59.9 69 10 50
12:45 1022 30.18 851 25.13 15.8 60.4 68 10 49.9
12:50 1022 30.18 851 25.13 16.1 61.1 67 10.1 50.1
12:55 1022 30.18 851 25.13 16.2 61.2 67 10.2 50.3
13:00 1022 30.18 851 25.13 16.4 61.5 65 9.8 49.6
13:05 1022 30.18 851 25.13 16.3 61.3 65 9.8 49.7
13:10 1022 30.18 851 25.13 16.6 61.9 64 9.9 49.7
13:15 1022 30.18 851 25.13 16.4 61.6 65 9.9 49.8
13:20 1022 30.18 851 25.13 16.4 61.4 64 9.5 49.1
13:25 1022 30.18 851 25.13 16.9 62.5 63 9.8 49.7
13:30 1022 30.18 851 25.13 16.3 61.4 65 9.7 49.5
13:35 1022 30.18 851 25.13 16.1 61.1 67 10.1 50.1
13:40 1022 30.18 851 25.13 16 60.8 66 9.6 49.3
13:45 1022 30.18 851 25.13 15.8 60.5 67 9.8 49.6
13:50 1022 30.18 851 25.13 15.7 60.3 68 9.8 49.7
13:55 1022 30.18 851 25.13 15.6 60 68 9.8 49.7
14:00 1022 30.18 851 25.13 15.5 59.8 69 9.9 49.8
14:05 1022 30.18 851 25.13 15.3 59.6 69 9.7 49.5
14:10 1022 30.18 851 25.13 15.3 59.5 70 9.9 49.8
14:15 1022 30.18 851 25.13 15.4 59.8 70 10 50.1
14:20 1022 30.18 851 25.13 15.1 59.3 70 9.9 49.7
14:25 1022 30.18 851 25.13 14.9 58.9 72 9.9 49.8
14:30 1022 30.18 851 25.13 14.7 58.4 73 10 50
14:35 1022 30.18 851 25.13 14.5 58.2 73 9.9 49.8
14:40 1022 30.18 851 25.13 14.3 57.7 74 9.8 49.6
14:45 1022 30.18 851 25.13 14.1 57.5 74 9.7 49.4
14:50 1022 30.18 851 25.13 14 57.1 75 9.6 49.3
14:55 1022 30.18 851 25.13 13.7 56.6 76 9.6 49.3
15:00 1022 30.18 851 25.13 13.6 56.6 77 9.7 49.4
15:05 1022 30.18 852 25.16 13.5 56.3 78 9.7 49.4
15:10 1022 30.18 852 25.16 13.4 56 78 9.6 49.3
15:15 1022 30.18 852 25.16 13.2 55.8 78 9.6 49.2
15:20 1022 30.18 851 25.13 13.1 55.6 79 9.6 49.3
15:25 1022 30.18 851 25.13 13.2 55.7 80 9.8 49.6
15:30 1022 30.18 851 25.13 13 55.5 79 9.6 49.2
15:35 1022 30.18 851 25.13 13 55.3 80 9.5 49.2
15:40 1022 30.18 851 25.13 12.8 55.1 80 9.5 49.1
15:45 1022 30.18 851 25.13 12.7 54.8 81 9.4 49
15:50 1023 30.21 852 25.16 12.5 54.6 82 9.6 49.3
15:55 1023 30.21 852 25.16 12.1 53.7 86 9.7 49.5
16:00 1024 30.24 853 25.19 11.9 53.5 93 10.8 51.4
16:05 1024 30.24 854 25.22 11.2 52.2 93 10.1 50.1
16:10 1024 30.24 854 25.22 10.9 51.6 94 10 49.9
16:15 1024 30.24 853 25.19 10.9 51.5 91 9.5 49
16:20 1024 30.24 853 25.19 11 51.7 91 9.6 49.2
16:25 1024 30.24 853 25.19 10.9 51.7 93 9.8 49.7
16:30 1023 30.21 853 25.19 10.9 51.7 93 9.9 49.8
16:35 1023 30.21 852 25.16 11.2 52.1 94 10.3 50.5
16:40 1023 30.21 852 25.16 11.5 52.7 90 10 50
16:45 1023 30.21 852 25.16 11.4 52.6 93 10.3 50.6
16:50 1023 30.21 852 25.16 11.6 52.8 90 10 50.1
16:55 1023 30.21 852 25.16 11.8 53.2 90 10.2 50.3
17:00 1023 30.21 852 25.16 11.9 53.5 84 9.4 48.9
17:05 1023 30.21 852 25.16 11.9 53.3 85 9.4 49
17:10 1023 30.21 852 25.16 11.9 53.5 84 9.4 48.9
17:15 1023 30.21 852 25.16 12.1 53.7 80 8.8 47.9
17:20 1023 30.21 852 25.16 12.2 54 81 9.1 48.4
17:25 1023 30.21 852 25.16 12.2 53.9 84 9.5 49.2
17:30 1023 30.21 852 25.16 12.1 53.7 84 9.5 49.1
17:35 1023 30.21 852 25.16 12.2 53.9 83 9.4 48.8
17:40 1023 30.21 852 25.16 12.1 53.8 83 9.4 48.9
17:45 1023 30.21 852 25.16 12.3 54.1 82 9.3 48.8
17:50 1023 30.21 852 25.16 12.3 54.1 80 8.9 48
17:55 1023 30.21 852 25.16 12.3 54.2 84 9.6 49.3
18:00 1023 30.21 852 25.16 12.2 53.9 82 9.2 48.6
18:05 1023 30.21 852 25.16 12.2 53.9 84 9.5 49.1
18:10 1023 30.21 853 25.19 12.2 54 82 9.2 48.6
18:15 1023 30.21 853 25.19 12.3 54.1 82 9.2 48.6
18:20 1023 30.21 853 25.19 12.4 54.2 81 9.3 48.7
18:25 1023 30.21 853 25.19 12.6 54.6 81 9.4 49
18:30 1024 30.24 853 25.19 12.5 54.6 79 9.1 48.3
18:35 1024 30.24 853 25.19 12.4 54.2 80 9 48.3
18:40 1024 30.24 853 25.19 12.2 54 80 8.9 48.1
18:45 1023 30.21 853 25.19 12.4 54.3 79 8.9 48
18:50 1024 30.24 853 25.19 12.5 54.5 80 9.1 48.5
18:55 1024 30.24 853 25.19 12.4 54.3 80 9.1 48.5
19:00 1024 30.24 853 25.19 12.2 54 79 8.8 47.8
19:05 1024 30.24 853 25.19 12.5 54.4 78 8.8 47.8
19:10 1024 30.24 853 25.19 12.6 54.6 78 8.9 48
19:15 1024 30.24 853 25.19 12.5 54.6 80 9.2 48.6
19:20 1024 30.24 853 25.19 12.4 54.2 81 9.1 48.5
19:25 1024 30.24 853 25.19 12.2 53.9 83 9.3 48.8
19:30 1024 30.24 853 25.19 11.9 53.4 83 9.1 48.4
19:35 1024 30.24 853 25.19 11.7 53 84 9.1 48.3
19:40 1024 30.24 853 25.19 11.5 52.8 85 9 48.3
19:45 1024 30.24 853 25.19 11.4 52.6 85 9.1 48.4
19:50 1024 30.24 853 25.19 11.3 52.4 84 8.8 47.8
19:55 1024 30.24 853 25.19 11.2 52.1 84 8.5 47.4
20:00 1024 30.24 853 25.19 11.3 52.3 84 8.6 47.5
20:05 1024 30.24 853 25.19 11.5 52.7 82 8.6 47.5
20:10 1024 30.24 853 25.19 11.6 52.9 82 8.6 47.5
20:15 1024 30.24 853 25.19 11.6 52.8 82 8.7 47.7
20:20 1024 30.24 853 25.19 11.4 52.5 83 8.6 47.5
20:25 1024 30.24 853 25.19 11.4 52.5 82 8.5 47.2
20:30 1024 30.24 853 25.19 11.4 52.4 82 8.4 47.1
20:35 1024 30.24 853 25.19 11.3 52.4 83 8.5 47.3
20:40 1024 30.24 853 25.19 11.3 52.3 83 8.5 47.3
20:45 1024 30.24 853 25.19 11.2 52.1 84 8.6 47.5
20:50 1024 30.24 854 25.22 11 51.8 84 8.5 47.3
20:55 1024 30.24 854 25.22 10.9 51.5 84 8.4 47
21:00 1024 30.24 854 25.22 10.8 51.4 83 8.1 46.6
21:05 1025 30.27 854 25.22 10.7 51.3 84 8.2 46.7
21:10 1025 30.27 854 25.22 10.6 51.1 84 8 46.4
21:15 1025 30.27 854 25.22 10.7 51.2 83 8 46.3
21:20 1025 30.27 854 25.22 10.7 51.3 82 7.8 46
21:25 1025 30.27 854 25.22 10.7 51.3 82 7.8 46
21:30 1025 30.27 854 25.22 10.7 51.2 83 8 46.3
21:35 1025 30.27 854 25.22 10.5 50.9 84 7.9 46.2
21:40 1025 30.27 854 25.22 10.5 50.9 85 8.1 46.5
21:45 1025 30.27 854 25.22 10.4 50.8 84 7.9 46.1
21:50 1025 30.27 854 25.22 10.3 50.6 84 7.8 46.1
21:55 1025 30.27 855 25.25 10.2 50.4 85 7.9 46.1
22:00 1025 30.27 855 25.25 10.1 50.3 85 7.7 45.8
22:05 1025 30.27 855 25.25 10.1 50.1 85 7.7 45.9
22:10 1025 30.27 855 25.25 10 50 86 7.8 46
22:15 1025 30.27 855 25.25 9.9 49.8 86 7.7 45.9
22:20 1025 30.27 855 25.25 9.9 49.8 86 7.7 45.8
22:25 1025 30.27 855 25.25 9.8 49.7 86 7.5 45.6
22:30 1025 30.27 855 25.25 9.8 49.6 86 7.6 45.7
22:35 1025 30.27 855 25.25 9.6 49.3 87 7.5 45.5
22:40 1025 30.27 855 25.25 9.5 49.2 87 7.6 45.6
22:45 1025 30.27 855 25.25 9.5 49 87 7.5 45.5
22:50 1025 30.27 855 25.25 9.5 49 88 7.6 45.6
22:55 1025 30.27 855 25.25 9.3 48.7 89 7.6 45.6
23:00 1025 30.27 855 25.25 9.1 48.4 89 7.5 45.4
23:05 1025 30.27 855 25.25 9.1 48.4 90 7.5 45.6
23:10 1025 30.27 855 25.25 9 48.2 90 7.5 45.4
23:15 1025 30.27 855 25.25 9 48.2 90 7.4 45.4
23:20 1025 30.27 855 25.25 9 48.2 90 7.4 45.4
23:25 1025 30.27 855 25.25 9 48.1 89 7.3 45.2
23:30 1025 30.27 855 25.25 9 48.1 89 7.3 45.1
23:35 1025 30.27 855 25.25 9 48.2 89 7.3 45.2
23:40 1025 30.27 855 25.25 9 48.2 90 7.4 45.3
23:45 1025 30.27 855 25.25 9 48.2 89 7.3 45.2
23:50 1026 30.3 855 25.25 9 48.1 90 7.4 45.3
23:55 1026 30.3 855 25.25 8.9 48.1 90 7.4 45.2
24:00 1026 30.3 855 25.25 9.1 48.3 89 7.4 45.3